sensor_id;sensor_type;location;lat;lon;timestamp;pressure;altitude;pressure_sealevel;temperature;humidity
71889;BME280;59762;49.998;14.858;2022-12-28T00:01:11;98189.13;;;0.30;100.00
71889;BME280;59762;49.998;14.858;2022-12-28T00:03:37;98196.16;;;0.29;100.00
71889;BME280;59762;49.998;14.858;2022-12-28T00:06:03;98187.09;;;0.33;100.00
71889;BME280;59762;49.998;14.858;2022-12-28T00:08:29;98187.75;;;0.35;100.00
71889;BME280;59762;49.998;14.858;2022-12-28T00:11:02;98178.16;;;0.36;100.00
71889;BME280;59762;49.998;14.858;2022-12-28T00:13:29;98182.13;;;0.40;100.00
71889;BME280;59762;49.998;14.858;2022-12-28T00:15:56;98180.06;;;0.34;100.00
71889;BME280;59762;49.998;14.858;2022-12-28T00:18:22;98169.00;;;0.30;100.00
71889;BME280;59762;49.998;14.858;2022-12-28T00:20:58;98171.50;;;0.32;100.00
71889;BME280;59762;49.998;14.858;2022-12-28T00:23:25;98161.84;;;0.32;100.00
71889;BME280;59762;49.998;14.858;2022-12-28T00:25:50;98161.84;;;0.32;100.00
71889;BME280;59762;49.998;14.858;2022-12-28T00:28:17;98156.56;;;0.22;100.00
71889;BME280;59762;49.998;14.858;2022-12-28T00:30:42;98149.94;;;0.18;100.00
71889;BME280;59762;49.998;14.858;2022-12-28T00:33:08;98157.47;;;0.12;100.00
71889;BME280;59762;49.998;14.858;2022-12-28T00:35:33;98150.00;;;0.07;100.00
71889;BME280;59762;49.998;14.858;2022-12-28T00:37:59;98129.19;;;0.06;100.00
71889;BME280;59762;49.998;14.858;2022-12-28T00:40:25;98133.03;;;0.02;100.00
71889;BME280;59762;49.998;14.858;2022-12-28T00:42:50;98130.41;;;0.02;100.00
71889;BME280;59762;49.998;14.858;2022-12-28T00:45:16;98133.06;;;0.11;100.00
71889;BME280;59762;49.998;14.858;2022-12-28T00:47:42;98133.25;;;0.19;100.00
71889;BME280;59762;49.998;14.858;2022-12-28T00:50:08;98130.47;;;0.21;100.00
71889;BME280;59762;49.998;14.858;2022-12-28T00:52:34;98135.03;;;0.19;100.00
71889;BME280;59762;49.998;14.858;2022-12-28T00:54:59;98135.03;;;0.19;100.00
71889;BME280;59762;49.998;14.858;2022-12-28T00:57:25;98127.84;;;0.11;100.00
71889;BME280;59762;49.998;14.858;2022-12-28T00:59:51;98129.88;;;0.08;100.00
71889;BME280;59762;49.998;14.858;2022-12-28T01:02:17;98132.25;;;0.11;100.00
71889;BME280;59762;49.998;14.858;2022-12-28T01:04:42;98127.00;;;0.11;100.00
71889;BME280;59762;49.998;14.858;2022-12-28T01:07:08;98124.66;;;0.08;100.00
71889;BME280;59762;49.998;14.858;2022-12-28T01:09:33;98134.88;;;0.11;100.00
71889;BME280;59762;49.998;14.858;2022-12-28T01:11:59;98133.31;;;0.08;100.00
71889;BME280;59762;49.998;14.858;2022-12-28T01:14:25;98132.81;;;0.14;100.00
71889;BME280;59762;49.998;14.858;2022-12-28T01:16:51;98127.03;;;0.20;100.00
71889;BME280;59762;49.998;14.858;2022-12-28T01:19:21;98130.78;;;0.18;100.00
71889;BME280;59762;49.998;14.858;2022-12-28T01:21:48;98133.91;;;0.12;100.00
71889;BME280;59762;49.998;14.858;2022-12-28T01:24:14;98137.91;;;0.16;100.00
71889;BME280;59762;49.998;14.858;2022-12-28T01:26:40;98130.72;;;0.08;100.00
71889;BME280;59762;49.998;14.858;2022-12-28T01:29:06;98123.13;;;0.05;100.00
71889;BME280;59762;49.998;14.858;2022-12-28T01:31:32;98120.63;;;0.04;100.00
71889;BME280;59762;49.998;14.858;2022-12-28T01:33:58;98125.63;;;0.07;100.00
71889;BME280;59762;49.998;14.858;2022-12-28T01:36:26;98118.19;;;0.12;100.00
71889;BME280;59762;49.998;14.858;2022-12-28T01:38:54;98115.16;;;0.16;100.00
71889;BME280;59762;49.998;14.858;2022-12-28T01:41:21;98114.09;;;0.19;100.00
71889;BME280;59762;49.998;14.858;2022-12-28T01:46:48;98102.53;;;0.31;100.00
71889;BME280;59762;49.998;14.858;2022-12-28T01:49:26;98099.22;;;0.29;100.00
71889;BME280;59762;49.998;14.858;2022-12-28T01:52:01;98095.38;;;0.33;100.00
71889;BME280;59762;49.998;14.858;2022-12-28T01:54:32;98094.28;;;0.36;100.00
71889;BME280;59762;49.998;14.858;2022-12-28T01:57:01;98105.28;;;0.39;100.00
71889;BME280;59762;49.998;14.858;2022-12-28T01:59:30;98108.22;;;0.36;100.00
71889;BME280;59762;49.998;14.858;2022-12-28T02:01:58;98100.34;;;0.36;100.00
71889;BME280;59762;49.998;14.858;2022-12-28T02:04:25;98092.47;;;0.36;100.00
71889;BME280;59762;49.998;14.858;2022-12-28T02:06:51;98091.78;;;0.34;100.00
71889;BME280;59762;49.998;14.858;2022-12-28T02:09:21;98080.03;;;0.29;100.00
71889;BME280;59762;49.998;14.858;2022-12-28T02:11:49;98074.94;;;0.27;100.00
71889;BME280;59762;49.998;14.858;2022-12-28T02:14:16;98070.50;;;0.18;100.00
71889;BME280;59762;49.998;14.858;2022-12-28T02:16:43;98071.75;;;0.14;100.00
71889;BME280;59762;49.998;14.858;2022-12-28T02:19:15;98065.91;;;0.01;100.00
71889;BME280;59762;49.998;14.858;2022-12-28T02:22:04;98057.34;;;-0.02;100.00
71889;BME280;59762;49.998;14.858;2022-12-28T02:30:07;98052.09;;;-0.02;100.00
71889;BME280;59762;49.998;14.858;2022-12-28T02:37:48;98033.75;;;-0.02;100.00
71889;BME280;59762;49.998;14.858;2022-12-28T02:40:25;98018.31;;;-0.05;100.00
71889;BME280;59762;49.998;14.858;2022-12-28T02:42:53;98024.69;;;0.03;100.00
71889;BME280;59762;49.998;14.858;2022-12-28T02:45:46;98027.31;;;0.03;100.00
71889;BME280;59762;49.998;14.858;2022-12-28T02:48:40;98023.03;;;0.02;100.00
71889;BME280;59762;49.998;14.858;2022-12-28T02:57:43;98010.72;;;-0.17;100.00
71889;BME280;59762;49.998;14.858;2022-12-28T03:00:17;98000.09;;;-0.16;100.00
71889;BME280;59762;49.998;14.858;2022-12-28T03:02:56;97995.44;;;-0.12;100.00
71889;BME280;59762;49.998;14.858;2022-12-28T03:08:15;97987.69;;;-0.14;100.00
71889;BME280;59762;49.998;14.858;2022-12-28T03:13:39;97978.72;;;-0.21;100.00
71889;BME280;59762;49.998;14.858;2022-12-28T03:16:16;97983.56;;;-0.16;100.00
71889;BME280;59762;49.998;14.858;2022-12-28T03:18:45;97976.28;;;-0.13;100.00
71889;BME280;59762;49.998;14.858;2022-12-28T03:21:30;97968.13;;;-0.10;100.00
71889;BME280;59762;49.998;14.858;2022-12-28T03:24:17;97956.56;;;-0.07;100.00
71889;BME280;59762;49.998;14.858;2022-12-28T03:27:05;97957.97;;;-0.03;100.00
71889;BME280;59762;49.998;14.858;2022-12-28T03:30:04;97960.16;;;0.02;100.00
71889;BME280;59762;49.998;14.858;2022-12-28T03:32:51;97964.44;;;0.03;100.00
71889;BME280;59762;49.998;14.858;2022-12-28T03:35:18;97962.09;;;-0.01;100.00
71889;BME280;59762;49.998;14.858;2022-12-28T03:37:48;97964.84;;;-0.02;100.00
71889;BME280;59762;49.998;14.858;2022-12-28T03:43:09;97960.56;;;-0.03;100.00
71889;BME280;59762;49.998;14.858;2022-12-28T03:46:05;97949.94;;;-0.02;100.00
71889;BME280;59762;49.998;14.858;2022-12-28T03:48:35;97952.16;;;0.03;100.00
71889;BME280;59762;49.998;14.858;2022-12-28T03:51:02;97955.75;;;0.12;100.00
71889;BME280;59762;49.998;14.858;2022-12-28T03:53:36;97951.22;;;0.14;100.00
71889;BME280;59762;49.998;14.858;2022-12-28T03:56:11;97941.56;;;0.24;100.00
71889;BME280;59762;49.998;14.858;2022-12-28T03:58:37;97933.56;;;0.25;100.00
71889;BME280;59762;49.998;14.858;2022-12-28T04:01:03;97925.84;;;0.24;100.00
71889;BME280;59762;49.998;14.858;2022-12-28T04:03:29;97929.31;;;0.24;100.00
71889;BME280;59762;49.998;14.858;2022-12-28T04:05:55;97922.66;;;0.30;100.00
71889;BME280;59762;49.998;14.858;2022-12-28T04:08:20;97928.47;;;0.34;100.00
71889;BME280;59762;49.998;14.858;2022-12-28T04:10:46;97930.53;;;0.30;100.00
71889;BME280;59762;49.998;14.858;2022-12-28T04:13:12;97921.03;;;0.29;100.00
71889;BME280;59762;49.998;14.858;2022-12-28T04:15:38;97914.00;;;0.20;100.00
71889;BME280;59762;49.998;14.858;2022-12-28T04:18:03;97918.16;;;0.22;100.00
71889;BME280;59762;49.998;14.858;2022-12-28T04:20:29;97914.97;;;0.29;100.00
71889;BME280;59762;49.998;14.858;2022-12-28T04:22:55;97906.13;;;0.20;100.00
71889;BME280;59762;49.998;14.858;2022-12-28T04:25:20;97907.94;;;0.19;100.00
71889;BME280;59762;49.998;14.858;2022-12-28T04:27:46;97903.38;;;0.21;100.00
71889;BME280;59762;49.998;14.858;2022-12-28T04:30:11;97898.94;;;0.22;100.00
71889;BME280;59762;49.998;14.858;2022-12-28T04:32:37;97896.47;;;0.20;100.00
71889;BME280;59762;49.998;14.858;2022-12-28T04:35:03;97887.81;;;0.10;100.00
71889;BME280;59762;49.998;14.858;2022-12-28T04:37:29;97882.25;;;0.13;100.00
71889;BME280;59762;49.998;14.858;2022-12-28T04:39:54;97883.81;;;0.06;100.00
71889;BME280;59762;49.998;14.858;2022-12-28T04:42:20;97885.44;;;0.07;100.00
71889;BME280;59762;49.998;14.858;2022-12-28T04:44:46;97884.78;;;0.05;100.00
71889;BME280;59762;49.998;14.858;2022-12-28T04:47:11;97882.56;;;0.10;100.00
71889;BME280;59762;49.998;14.858;2022-12-28T04:49:37;97886.97;;;0.10;100.00
71889;BME280;59762;49.998;14.858;2022-12-28T04:52:03;97883.25;;;0.12;100.00
71889;BME280;59762;49.998;14.858;2022-12-28T04:54:29;97878.41;;;0.17;100.00
71889;BME280;59762;49.998;14.858;2022-12-28T04:56:55;97880.19;;;0.17;100.00
71889;BME280;59762;49.998;14.858;2022-12-28T04:59:20;97874.03;;;0.18;100.00
71889;BME280;59762;49.998;14.858;2022-12-28T05:01:46;97864.06;;;0.21;100.00
71889;BME280;59762;49.998;14.858;2022-12-28T05:04:11;97864.34;;;0.28;100.00
71889;BME280;59762;49.998;14.858;2022-12-28T05:06:37;97863.94;;;0.33;100.00
71889;BME280;59762;49.998;14.858;2022-12-28T05:09:03;97863.38;;;0.29;100.00
71889;BME280;59762;49.998;14.858;2022-12-28T05:11:29;97848.75;;;0.36;100.00
71889;BME280;59762;49.998;14.858;2022-12-28T05:13:55;97843.53;;;0.36;100.00
71889;BME280;59762;49.998;14.858;2022-12-28T05:16:22;97851.78;;;0.41;100.00
71889;BME280;59762;49.998;14.858;2022-12-28T05:18:48;97843.09;;;0.41;100.00
71889;BME280;59762;49.998;14.858;2022-12-28T05:23:42;97839.66;;;0.40;100.00
71889;BME280;59762;49.998;14.858;2022-12-28T05:26:11;97828.06;;;0.33;100.00
71889;BME280;59762;49.998;14.858;2022-12-28T05:28:37;97822.81;;;0.33;100.00
71889;BME280;59762;49.998;14.858;2022-12-28T05:31:06;97817.31;;;0.36;100.00
71889;BME280;59762;49.998;14.858;2022-12-28T05:33:33;97819.34;;;0.42;100.00
71889;BME280;59762;49.998;14.858;2022-12-28T05:36:23;97820.56;;;0.48;100.00
71889;BME280;59762;49.998;14.858;2022-12-28T05:38:51;97812.28;;;0.53;100.00
71889;BME280;59762;49.998;14.858;2022-12-28T05:41:19;97808.41;;;0.57;100.00
71889;BME280;59762;49.998;14.858;2022-12-28T05:43:46;97800.44;;;0.58;100.00
71889;BME280;59762;49.998;14.858;2022-12-28T05:46:15;97795.16;;;0.68;100.00
71889;BME280;59762;49.998;14.858;2022-12-28T05:48:41;97796.78;;;0.69;100.00
71889;BME280;59762;49.998;14.858;2022-12-28T05:51:10;97805.63;;;0.68;100.00
71889;BME280;59762;49.998;14.858;2022-12-28T05:53:36;97804.38;;;0.72;100.00
71889;BME280;59762;49.998;14.858;2022-12-28T05:56:22;97808.66;;;0.73;100.00
71889;BME280;59762;49.998;14.858;2022-12-28T05:58:54;97805.63;;;0.68;100.00
71889;BME280;59762;49.998;14.858;2022-12-28T06:01:22;97806.72;;;0.65;100.00
71889;BME280;59762;49.998;14.858;2022-12-28T06:03:56;97809.50;;;0.64;100.00
71889;BME280;59762;49.998;14.858;2022-12-28T06:06:22;97815.84;;;0.61;100.00
71889;BME280;59762;49.998;14.858;2022-12-28T06:08:48;97807.31;;;0.59;100.00
71889;BME280;59762;49.998;14.858;2022-12-28T06:11:16;97813.38;;;0.60;100.00
71889;BME280;59762;49.998;14.858;2022-12-28T06:13:43;97808.97;;;0.60;100.00
71889;BME280;59762;49.998;14.858;2022-12-28T06:16:14;97816.03;;;0.50;100.00
71889;BME280;59762;49.998;14.858;2022-12-28T06:18:40;97810.41;;;0.45;100.00
71889;BME280;59762;49.998;14.858;2022-12-28T06:21:22;97806.09;;;0.44;100.00
71889;BME280;59762;49.998;14.858;2022-12-28T06:23:48;97813.00;;;0.35;100.00
71889;BME280;59762;49.998;14.858;2022-12-28T06:26:18;97814.00;;;0.34;100.00
71889;BME280;59762;49.998;14.858;2022-12-28T06:28:44;97814.16;;;0.33;100.00
71889;BME280;59762;49.998;14.858;2022-12-28T06:31:13;97824.19;;;0.37;100.00
71889;BME280;59762;49.998;14.858;2022-12-28T06:33:40;97823.50;;;0.35;100.00
71889;BME280;59762;49.998;14.858;2022-12-28T06:36:18;97820.75;;;0.37;100.00
71889;BME280;59762;49.998;14.858;2022-12-28T06:38:44;97823.41;;;0.27;100.00
71889;BME280;59762;49.998;14.858;2022-12-28T06:41:11;97819.09;;;0.26;100.00
71889;BME280;59762;49.998;14.858;2022-12-28T06:43:39;97825.31;;;0.25;100.00
71889;BME280;59762;49.998;14.858;2022-12-28T06:46:05;97823.69;;;0.14;100.00
71889;BME280;59762;49.998;14.858;2022-12-28T06:48:33;97815.94;;;0.13;100.00
71889;BME280;59762;49.998;14.858;2022-12-28T06:51:01;97814.72;;;0.17;100.00
71889;BME280;59762;49.998;14.858;2022-12-28T06:53:30;97813.47;;;0.11;100.00
71889;BME280;59762;49.998;14.858;2022-12-28T06:55:59;97812.25;;;0.06;100.00
71889;BME280;59762;49.998;14.858;2022-12-28T06:58:26;97820.66;;;0.09;100.00
71889;BME280;59762;49.998;14.858;2022-12-28T07:00:52;97813.22;;;0.05;100.00
71889;BME280;59762;49.998;14.858;2022-12-28T07:03:23;97809.09;;;-0.08;100.00
71889;BME280;59762;49.998;14.858;2022-12-28T07:05:49;97807.72;;;-0.12;100.00
71889;BME280;59762;49.998;14.858;2022-12-28T07:08:15;97806.88;;;-0.12;100.00
71889;BME280;59762;49.998;14.858;2022-12-28T07:10:41;97813.78;;;-0.11;100.00
71889;BME280;59762;49.998;14.858;2022-12-28T07:13:06;97814.59;;;-0.11;100.00
71889;BME280;59762;49.998;14.858;2022-12-28T07:15:34;97814.88;;;-0.14;100.00
71889;BME280;59762;49.998;14.858;2022-12-28T07:17:59;97815.41;;;-0.10;100.00
71889;BME280;59762;49.998;14.858;2022-12-28T07:20:25;97827.97;;;-0.04;100.00
71889;BME280;59762;49.998;14.858;2022-12-28T07:22:52;97827.00;;;-0.03;100.00
71889;BME280;59762;49.998;14.858;2022-12-28T07:25:18;97833.06;;;-0.03;100.00
71889;BME280;59762;49.998;14.858;2022-12-28T07:27:43;97811.28;;;0.07;100.00
71889;BME280;59762;49.998;14.858;2022-12-28T07:30:10;97809.06;;;0.12;100.00
71889;BME280;59762;49.998;14.858;2022-12-28T07:32:36;97806.28;;;0.13;100.00
71889;BME280;59762;49.998;14.858;2022-12-28T07:35:02;97807.16;;;0.14;100.00
71889;BME280;59762;49.998;14.858;2022-12-28T07:37:28;97808.94;;;0.23;100.00
71889;BME280;59762;49.998;14.858;2022-12-28T07:39:54;97808.63;;;0.26;100.00
71889;BME280;59762;49.998;14.858;2022-12-28T07:42:19;97803.09;;;0.39;100.00
71889;BME280;59762;49.998;14.858;2022-12-28T07:44:45;97798.22;;;0.54;100.00
71889;BME280;59762;49.998;14.858;2022-12-28T07:47:12;97799.88;;;0.55;100.00
71889;BME280;59762;49.998;14.858;2022-12-28T07:49:39;97796.78;;;0.69;100.00
71889;BME280;59762;49.998;14.858;2022-12-28T07:52:04;97799.25;;;0.80;100.00
71889;BME280;59762;49.998;14.858;2022-12-28T07:54:30;97798.38;;;0.89;100.00
71889;BME280;59762;49.998;14.858;2022-12-28T07:56:56;97801.63;;;1.01;100.00
71889;BME280;59762;49.998;14.858;2022-12-28T07:59:22;97797.59;;;1.07;100.00
71889;BME280;59762;49.998;14.858;2022-12-28T08:01:50;97797.38;;;1.18;100.00
71889;BME280;59762;49.998;14.858;2022-12-28T08:04:16;97790.69;;;1.33;100.00
71889;BME280;59762;49.998;14.858;2022-12-28T08:06:43;97786.09;;;1.35;100.00
71889;BME280;59762;49.998;14.858;2022-12-28T08:09:12;97782.22;;;1.39;100.00
71889;BME280;59762;49.998;14.858;2022-12-28T08:11:40;97778.69;;;1.48;100.00
71889;BME280;59762;49.998;14.858;2022-12-28T08:14:07;97771.19;;;1.54;100.00
71889;BME280;59762;49.998;14.858;2022-12-28T08:16:39;97769.25;;;1.56;100.00
71889;BME280;59762;49.998;14.858;2022-12-28T08:19:06;97758.31;;;1.60;100.00
71889;BME280;59762;49.998;14.858;2022-12-28T08:21:34;97764.75;;;1.66;100.00
71889;BME280;59762;49.998;14.858;2022-12-28T08:24:01;97754.06;;;1.67;100.00
71889;BME280;59762;49.998;14.858;2022-12-28T08:26:31;97764.75;;;1.66;100.00
71889;BME280;59762;49.998;14.858;2022-12-28T08:29:00;97760.69;;;1.71;100.00
71889;BME280;59762;49.998;14.858;2022-12-28T08:31:31;97752.50;;;1.74;100.00
71889;BME280;59762;49.998;14.858;2022-12-28T08:33:58;97747.16;;;1.84;100.00
71889;BME280;59762;49.998;14.858;2022-12-28T08:36:25;97750.16;;;1.89;100.00
71889;BME280;59762;49.998;14.858;2022-12-28T08:38:51;97753.38;;;2.01;100.00
71889;BME280;59762;49.998;14.858;2022-12-28T08:41:19;97749.59;;;2.03;100.00
71889;BME280;59762;49.998;14.858;2022-12-28T08:43:46;97752.28;;;2.12;100.00
71889;BME280;59762;49.998;14.858;2022-12-28T08:46:18;97754.91;;;2.12;100.00
71889;BME280;59762;49.998;14.858;2022-12-28T08:48:46;97752.22;;;2.21;100.00
71889;BME280;59762;49.998;14.858;2022-12-28T08:51:17;97751.44;;;2.29;100.00
71889;BME280;59762;49.998;14.858;2022-12-28T08:53:44;97751.78;;;2.34;100.00
71889;BME280;59762;49.998;14.858;2022-12-28T08:56:13;97742.53;;;2.48;100.00
71889;BME280;59762;49.998;14.858;2022-12-28T08:58:40;97737.28;;;2.56;100.00
71889;BME280;59762;49.998;14.858;2022-12-28T09:01:08;97735.56;;;2.73;100.00
71889;BME280;59762;49.998;14.858;2022-12-28T09:03:36;97743.50;;;2.81;100.00
71889;BME280;59762;49.998;14.858;2022-12-28T09:06:03;97741.69;;;2.82;100.00
71889;BME280;59762;49.998;14.858;2022-12-28T09:08:29;97739.09;;;2.90;100.00
71889;BME280;59762;49.998;14.858;2022-12-28T09:10:58;97747.00;;;2.98;100.00
71889;BME280;59762;49.998;14.858;2022-12-28T09:13:24;97746.22;;;3.06;100.00
71889;BME280;59762;49.998;14.858;2022-12-28T09:16:00;97748.38;;;3.10;100.00
71889;BME280;59762;49.998;14.858;2022-12-28T09:18:27;97741.13;;;3.12;100.00
71889;BME280;59762;49.998;14.858;2022-12-28T09:20:52;97736.19;;;3.17;100.00
71889;BME280;59762;49.998;14.858;2022-12-28T09:23:18;97734.41;;;3.26;100.00
71889;BME280;59762;49.998;14.858;2022-12-28T09:25:44;97730.66;;;3.37;100.00
71889;BME280;59762;49.998;14.858;2022-12-28T09:28:09;97727.56;;;3.41;100.00
71889;BME280;59762;49.998;14.858;2022-12-28T09:30:35;97718.47;;;3.36;100.00
71889;BME280;59762;49.998;14.858;2022-12-28T09:33:01;97708.28;;;3.49;100.00
71889;BME280;59762;49.998;14.858;2022-12-28T09:35:45;97723.59;;;3.53;100.00
71889;BME280;59762;49.998;14.858;2022-12-28T09:38:11;97706.13;;;3.44;100.00
71889;BME280;59762;49.998;14.858;2022-12-28T09:40:36;97703.16;;;3.39;100.00
71889;BME280;59762;49.998;14.858;2022-12-28T09:43:03;97705.81;;;3.47;100.00
71889;BME280;59762;49.998;14.858;2022-12-28T09:45:31;97702.38;;;3.55;100.00
71889;BME280;59762;49.998;14.858;2022-12-28T09:48:03;97691.03;;;3.54;100.00
71889;BME280;59762;49.998;14.858;2022-12-28T09:50:30;97699.91;;;3.62;100.00
71889;BME280;59762;49.998;14.858;2022-12-28T09:55:53;97690.69;;;3.82;100.00
71889;BME280;59762;49.998;14.858;2022-12-28T09:58:21;97684.09;;;3.86;100.00
71889;BME280;59762;49.998;14.858;2022-12-28T10:00:53;97694.44;;;3.96;100.00
71889;BME280;59762;49.998;14.858;2022-12-28T10:03:30;97687.53;;;4.03;100.00
71889;BME280;59762;49.998;14.858;2022-12-28T10:05:57;97674.81;;;4.15;100.00
71889;BME280;59762;49.998;14.858;2022-12-28T10:08:25;97676.09;;;4.27;100.00
71889;BME280;59762;49.998;14.858;2022-12-28T10:10:52;97672.97;;;4.32;100.00
71889;BME280;59762;49.998;14.858;2022-12-28T10:13:23;97676.06;;;4.43;100.00
71889;BME280;59762;49.998;14.858;2022-12-28T10:15:50;97667.66;;;4.48;100.00
71889;BME280;59762;49.998;14.858;2022-12-28T10:18:25;97666.09;;;4.62;100.00
71889;BME280;59762;49.998;14.858;2022-12-28T10:20:51;97656.84;;;4.66;100.00
71889;BME280;59762;49.998;14.858;2022-12-28T10:23:21;97655.84;;;4.67;100.00
71889;BME280;59762;49.998;14.858;2022-12-28T10:25:49;97663.47;;;4.62;100.00
71889;BME280;59762;49.998;14.858;2022-12-28T10:28:19;97646.59;;;4.71;100.00
71889;BME280;59762;49.998;14.858;2022-12-28T10:30:48;97648.22;;;4.72;100.00
71889;BME280;59762;49.998;14.858;2022-12-28T10:33:18;97641.44;;;4.77;100.00
71889;BME280;59762;49.998;14.858;2022-12-28T10:35:52;97641.97;;;4.73;100.00
71889;BME280;59762;49.998;14.858;2022-12-28T10:38:27;97646.31;;;4.66;100.00
71889;BME280;59762;49.998;14.858;2022-12-28T10:41:05;97633.06;;;4.74;100.00
71889;BME280;59762;49.998;14.858;2022-12-28T10:43:34;97624.97;;;4.75;100.00
71889;BME280;59762;49.998;14.858;2022-12-28T10:46:01;97629.44;;;4.75;100.00
71889;BME280;59762;49.998;14.858;2022-12-28T10:48:35;97628.44;;;4.76;100.00
71889;BME280;59762;49.998;14.858;2022-12-28T10:51:10;97630.44;;;4.74;100.00
71889;BME280;59762;49.998;14.858;2022-12-28T10:58:42;97629.88;;;5.10;100.00
71889;BME280;59762;49.998;14.858;2022-12-28T11:03:38;97622.06;;;5.39;100.00
71889;BME280;59762;49.998;14.858;2022-12-28T11:06:20;97620.47;;;5.53;100.00
71889;BME280;59762;49.998;14.858;2022-12-28T11:11:35;97607.38;;;5.60;100.00
71889;BME280;59762;49.998;14.858;2022-12-28T11:14:14;97612.31;;;5.63;100.00
71889;BME280;59762;49.998;14.858;2022-12-28T11:16:41;97602.69;;;5.85;100.00
71889;BME280;59762;49.998;14.858;2022-12-28T11:19:07;97597.28;;;5.63;100.00
71889;BME280;59762;49.998;14.858;2022-12-28T11:21:35;97586.84;;;5.62;100.00
71889;BME280;59762;49.998;14.858;2022-12-28T11:24:02;97584.69;;;5.65;100.00
71889;BME280;59762;49.998;14.858;2022-12-28T11:26:28;97587.78;;;5.69;100.00
71889;BME280;59762;49.998;14.858;2022-12-28T11:28:55;97580.06;;;5.67;100.00
71889;BME280;59762;49.998;14.858;2022-12-28T11:31:32;97577.56;;;5.66;100.00
71889;BME280;59762;49.998;14.858;2022-12-28T11:34:04;97568.13;;;5.86;100.00
71889;BME280;59762;49.998;14.858;2022-12-28T11:36:37;97562.03;;;5.86;100.00
71889;BME280;59762;49.998;14.858;2022-12-28T11:41:58;97560.69;;;6.04;100.00
71889;BME280;59762;49.998;14.858;2022-12-28T11:49:44;97547.94;;;5.93;100.00
71889;BME280;59762;49.998;14.858;2022-12-28T11:57:39;97533.56;;;5.88;100.00
71889;BME280;59762;49.998;14.858;2022-12-28T12:03:02;97535.50;;;6.09;100.00
71889;BME280;59762;49.998;14.858;2022-12-28T12:10:39;97510.91;;;6.08;100.00
71889;BME280;59762;49.998;14.858;2022-12-28T12:15:53;97507.97;;;6.18;100.00
71889;BME280;59762;49.998;14.858;2022-12-28T12:18:25;97499.75;;;6.13;100.00
71889;BME280;59762;49.998;14.858;2022-12-28T12:21:02;97496.94;;;5.99;100.00
71889;BME280;59762;49.998;14.858;2022-12-28T12:28:58;97482.81;;;5.77;100.00
71889;BME280;59762;49.998;14.858;2022-12-28T12:31:30;97484.44;;;5.64;100.00
71889;BME280;59762;49.998;14.858;2022-12-28T12:34:04;97481.63;;;5.65;100.00
71889;BME280;59762;49.998;14.858;2022-12-28T12:36:47;97480.53;;;5.60;100.00
71889;BME280;59762;49.998;14.858;2022-12-28T12:39:26;97476.69;;;5.62;100.00
71889;BME280;59762;49.998;14.858;2022-12-28T12:58:47;97460.50;;;5.80;100.00
71889;BME280;59762;49.998;14.858;2022-12-28T13:03:42;97453.09;;;5.75;100.00
71889;BME280;59762;49.998;14.858;2022-12-28T13:06:12;97460.50;;;5.80;100.00
71889;BME280;59762;49.998;14.858;2022-12-28T13:08:48;97454.91;;;5.75;100.00
71889;BME280;59762;49.998;14.858;2022-12-28T13:11:17;97447.47;;;5.64;100.00
71889;BME280;59762;49.998;14.858;2022-12-28T13:13:46;97446.53;;;5.56;100.00
71889;BME280;59762;49.998;14.858;2022-12-28T13:16:17;97448.72;;;5.53;100.00
71889;BME280;59762;49.998;14.858;2022-12-28T13:18:58;97443.81;;;5.50;100.00
71889;BME280;59762;49.998;14.858;2022-12-28T13:21:27;97446.47;;;5.50;100.00
71889;BME280;59762;49.998;14.858;2022-12-28T13:23:53;97438.53;;;5.50;100.00
71889;BME280;59762;49.998;14.858;2022-12-28T13:26:25;97446.47;;;5.50;100.00
71889;BME280;59762;49.998;14.858;2022-12-28T13:29:07;97447.81;;;5.46;100.00
71889;BME280;59762;49.998;14.858;2022-12-28T13:31:37;97436.53;;;5.37;100.00
71889;BME280;59762;49.998;14.858;2022-12-28T13:39:17;97427.94;;;5.35;100.00
71889;BME280;59762;49.998;14.858;2022-12-28T13:42:01;97425.31;;;5.35;100.00
71889;BME280;59762;49.998;14.858;2022-12-28T13:44:47;97425.97;;;5.37;100.00
71889;BME280;59762;49.998;14.858;2022-12-28T13:49:53;97418.50;;;5.41;100.00
71889;BME280;59762;49.998;14.858;2022-12-28T13:52:26;97423.78;;;5.41;100.00
71889;BME280;59762;49.998;14.858;2022-12-28T13:54:59;97416.28;;;5.44;100.00
71889;BME280;59762;49.998;14.858;2022-12-28T13:57:30;97425.13;;;5.51;100.00
71889;BME280;59762;49.998;14.858;2022-12-28T13:59:58;97413.09;;;5.49;100.00
71889;BME280;59762;49.998;14.858;2022-12-28T14:02:24;97412.28;;;5.48;100.00
71889;BME280;59762;49.998;14.858;2022-12-28T14:04:52;97410.19;;;5.44;100.00
71889;BME280;59762;49.998;14.858;2022-12-28T14:07:20;97413.09;;;5.49;100.00
71889;BME280;59762;49.998;14.858;2022-12-28T14:09:49;97404.91;;;5.44;100.00
71889;BME280;59762;49.998;14.858;2022-12-28T14:12:16;97411.84;;;5.45;100.00
71889;BME280;59762;49.998;14.858;2022-12-28T14:14:43;97411.00;;;5.44;100.00
71889;BME280;59762;49.998;14.858;2022-12-28T14:17:09;97413.75;;;5.36;100.00
71889;BME280;59762;49.998;14.858;2022-12-28T14:19:36;97403.56;;;5.33;100.00
71889;BME280;59762;49.998;14.858;2022-12-28T14:22:02;97405.66;;;5.38;100.00
71889;BME280;59762;49.998;14.858;2022-12-28T14:25:05;97401.09;;;5.31;100.00
71889;BME280;59762;49.998;14.858;2022-12-28T14:27:33;97400.09;;;5.32;100.00
71889;BME280;59762;49.998;14.858;2022-12-28T14:30:00;97406.19;;;5.33;100.00
71889;BME280;59762;49.998;14.858;2022-12-28T14:32:26;97404.91;;;5.29;100.00
71889;BME280;59762;49.998;14.858;2022-12-28T14:34:56;97397.34;;;5.26;100.00
71889;BME280;59762;49.998;14.858;2022-12-28T14:37:34;97398.44;;;5.17;100.00
71889;BME280;59762;49.998;14.858;2022-12-28T14:40:04;97403.91;;;5.15;100.00
71889;BME280;59762;49.998;14.858;2022-12-28T14:42:31;97400.00;;;5.11;100.00